Sanpo Maru No.7 — JD4178 — position and weather

sailwx.info

Track history (hours):
 
Tides and Currents Weather Stations Pressure Air Temp Water Temp Dewpoint Dewpoint Depression Visibility Wind Speed Wind Dir Waves Ship Positions

Sanpo Maru No.7

Last reported at 2017-Nov-23 18:58 UTC. Time now 2017-Nov-23 22:02 UTC.
Position N 35°29' E 139°54'.

Length 89 m; draft 5.6 m.

Type: Tanker. MMSI: 431009366.

Date/timePositionNaut miles runAvg speedWind from/ knotsBaromVisibWave heightAir tempDewpointWater temp
2017-Nov-23 18:58N 35°29' E 139°54'0 0.1
2017-Nov-23 18:28N 35°29' E 139°54'0 0.1
2017-Nov-23 18:01N 35°29' E 139°54'4 8.4
2017-Nov-23 17:30N 35°27' E 139°49'612.5
2017-Nov-23 17:00N 35°22' E 139°45'611.1
2017-Nov-23 16:30N 35°16' E 139°46'611.9
2017-Nov-23 16:00N 35°10' E 139°46'612.7
2017-Nov-23 15:30N 35°04' E 139°44'713.0
2017-Nov-23 15:00N 35°00' E 139°38'713.6
2017-Nov-23 14:31N 34°56' E 139°31'1514.6
2017-Nov-23 13:30N 34°48' E 139°16'21811.9
2017-Nov-22 19:15N 33°57' E 134°59'  
2017-Nov-18 07:02N 34°03' E 134°59'114.4
2017-Nov-18 06:59N 34°04' E 134°59'714.4
2017-Nov-18 06:30N 34°11' E 134°59'2413.8
2017-Nov-18 04:48N 34°31' E 135°14'513.9
2017-Nov-18 04:27N 34°34' E 135°18'612.1
2017-Nov-18 04:00N 34°36' E 135°25'2 0.5
2017-Nov-18 01:02N 34°35' E 135°26'0 0.4
2017-Nov-18 00:38N 34°34' E 135°26'0 0.0
2017-Nov-18 00:21N 34°34' E 135°26'0 0.0
2017-Nov-17 22:09N 34°34' E 135°26'0 0.0
2017-Nov-17 21:59N 34°34' E 135°26'2 4.9
2017-Nov-17 21:30N 34°36' E 135°24'1 2.3
2017-Nov-17 20:56N 34°36' E 135°23'0 0.0
2017-Nov-17 20:26N 34°35' E 135°23'0 0.0
2017-Nov-17 19:56N 34°35' E 135°23'0 0.0
2017-Nov-17 19:30N 34°35' E 135°23'0 0.0
2017-Nov-17 19:00N 34°35' E 135°23'0 0.0
2017-Nov-17 18:30N 34°35' E 135°23'0 0.1
2017-Nov-17 18:00N 34°35' E 135°23'0 0.0
2017-Nov-17 17:30N 34°35' E 135°23'0 0.1
2017-Nov-17 17:00N 34°35' E 135°23'0 0.0
2017-Nov-17 16:30N 34°35' E 135°23'0 0.0
2017-Nov-17 16:00N 34°35' E 135°23'0 0.1
2017-Nov-17 15:30N 34°35' E 135°23'510.8
2017-Nov-17 15:01N 34°35' E 135°16'714.4
2017-Nov-17 14:31N 34°35' E 135°08'9 0.2
2017-Nov-16 01:31N 34°37' E 134°57'013.2
2017-Nov-16 01:30N 34°37' E 134°57'611.7
2017-Nov-16 01:00N 34°36' E 135°04'612.2
2017-Nov-16 00:29N 34°29' E 135°04'1613.6
2017-Nov-15 23:19N 34°14' E 134°59'  
Track history (hours):
 
Tides and Currents Weather Stations Pressure Air Temp Water Temp Dewpoint Dewpoint Depression Visibility Wind Speed Wind Dir Waves Ship Positions

Sanpo Maru No.7

Last reported at 2017-Nov-23 18:58 UTC. Time now 2017-Nov-23 22:02 UTC.
Position N 35°29' E 139°54'.

Length 89 m; draft 5.6 m.

Type: Tanker. MMSI: 431009366.

Date/timePositionNaut miles runAvg speedWind from/ knotsBaromVisibWave heightAir tempDewpointWater temp
2017-Nov-23 18:58N 35°29' E 139°54'0 0.1
2017-Nov-23 18:28N 35°29' E 139°54'0 0.1
2017-Nov-23 18:01N 35°29' E 139°54'4 8.4
2017-Nov-23 17:30N 35°27' E 139°49'612.5
2017-Nov-23 17:00N 35°22' E 139°45'611.1
2017-Nov-23 16:30N 35°16' E 139°46'611.9
2017-Nov-23 16:00N 35°10' E 139°46'612.7
2017-Nov-23 15:30N 35°04' E 139°44'713.0
2017-Nov-23 15:00N 35°00' E 139°38'713.6
2017-Nov-23 14:31N 34°56' E 139°31'1514.6
2017-Nov-23 13:30N 34°48' E 139°16'21811.9
2017-Nov-22 19:15N 33°57' E 134°59'  
2017-Nov-18 07:02N 34°03' E 134°59'114.4
2017-Nov-18 06:59N 34°04' E 134°59'714.4
2017-Nov-18 06:30N 34°11' E 134°59'2413.8
2017-Nov-18 04:48N 34°31' E 135°14'513.9
2017-Nov-18 04:27N 34°34' E 135°18'612.1
2017-Nov-18 04:00N 34°36' E 135°25'2 0.5
2017-Nov-18 01:02N 34°35' E 135°26'0 0.4
2017-Nov-18 00:38N 34°34' E 135°26'0 0.0
2017-Nov-18 00:21N 34°34' E 135°26'0 0.0
2017-Nov-17 22:09N 34°34' E 135°26'0 0.0
2017-Nov-17 21:59N 34°34' E 135°26'2 4.9
2017-Nov-17 21:30N 34°36' E 135°24'1 2.3
2017-Nov-17 20:56N 34°36' E 135°23'0 0.0
2017-Nov-17 20:26N 34°35' E 135°23'0 0.0
2017-Nov-17 19:56N 34°35' E 135°23'0 0.0
2017-Nov-17 19:30N 34°35' E 135°23'0 0.0
2017-Nov-17 19:00N 34°35' E 135°23'0 0.0
2017-Nov-17 18:30N 34°35' E 135°23'0 0.1
2017-Nov-17 18:00N 34°35' E 135°23'0 0.0
2017-Nov-17 17:30N 34°35' E 135°23'0 0.1
2017-Nov-17 17:00N 34°35' E 135°23'0 0.0
2017-Nov-17 16:30N 34°35' E 135°23'0 0.0
2017-Nov-17 16:00N 34°35' E 135°23'0 0.1
2017-Nov-17 15:30N 34°35' E 135°23'510.8
2017-Nov-17 15:01N 34°35' E 135°16'714.4
2017-Nov-17 14:31N 34°35' E 135°08'9 0.2
2017-Nov-16 01:31N 34°37' E 134°57'013.2
2017-Nov-16 01:30N 34°37' E 134°57'611.7
2017-Nov-16 01:00N 34°36' E 135°04'612.2
2017-Nov-16 00:29N 34°29' E 135°04'1613.6
2017-Nov-15 23:19N 34°14' E 134°59'  

Dump ship's entire track history